createdAt,value
2019-03-12T00:00:27.685Z,18.55
2019-03-12T00:02:56.868Z,19.45
2019-03-12T00:05:26.380Z,18.57
2019-03-12T00:07:55.629Z,20.20
2019-03-12T00:10:24.804Z,19.25
2019-03-12T00:12:54.144Z,18.15
2019-03-12T00:15:23.423Z,18.85
2019-03-12T00:17:52.695Z,19.42
2019-03-12T00:20:21.986Z,19.07
2019-03-12T00:22:51.168Z,19.15
2019-03-12T00:25:20.350Z,19.32
2019-03-12T00:27:49.642Z,18.25
2019-03-12T00:30:19.193Z,19.52
2019-03-12T00:32:48.492Z,18.15
2019-03-12T00:35:17.811Z,18.20
2019-03-12T00:37:46.993Z,18.85
2019-03-12T00:40:16.263Z,18.55
2019-03-12T00:42:45.442Z,19.05
2019-03-12T00:45:14.645Z,18.12
2019-03-12T00:47:44.018Z,18.65
2019-03-12T00:50:13.192Z,18.92
2019-03-12T00:52:42.379Z,18.85
2019-03-12T00:55:11.707Z,18.00
2019-03-12T00:57:40.879Z,16.90
2019-03-12T01:00:15.751Z,18.23
2019-03-12T01:02:44.928Z,16.67
2019-03-12T01:05:14.243Z,16.87
2019-03-12T01:07:43.479Z,16.25
2019-03-12T01:10:14.386Z,17.05
2019-03-12T01:12:43.649Z,17.15
2019-03-12T01:15:15.770Z,16.05
2019-03-12T01:17:45.028Z,16.75
2019-03-12T01:20:15.344Z,17.07
2019-03-12T01:22:44.524Z,16.93
2019-03-12T01:25:14.291Z,16.25
2019-03-12T01:27:43.470Z,16.15
2019-03-12T01:30:15.610Z,14.28
2019-03-12T01:32:44.889Z,14.28
2019-03-12T01:35:14.104Z,14.03
2019-03-12T01:37:43.287Z,13.48
2019-03-12T01:40:13.854Z,14.40
2019-03-12T01:42:43.027Z,13.25
2019-03-12T01:45:15.581Z,13.35
2019-03-12T01:47:45.295Z,13.40
2019-03-12T01:50:15.303Z,12.50
2019-03-12T01:52:44.476Z,13.30
2019-03-12T01:55:15.041Z,13.90
2019-03-12T01:57:44.220Z,13.53
2019-03-12T02:00:16.274Z,12.40
2019-03-12T02:02:45.778Z,13.65
2019-03-12T02:05:15.097Z,13.20
2019-03-12T02:07:44.438Z,12.23
2019-03-12T02:10:16.550Z,12.60
2019-03-12T02:12:45.769Z,12.43
2019-03-12T02:15:17.121Z,12.73
2019-03-12T02:17:46.297Z,13.50
2019-03-12T02:20:19.543Z,12.73
2019-03-12T02:22:48.730Z,13.13
2019-03-12T02:25:18.939Z,12.03
2019-03-12T02:27:48.180Z,12.37
2019-03-12T02:30:18.907Z,12.30
2019-03-12T02:32:48.275Z,12.53
2019-03-12T02:35:17.492Z,12.13
2019-03-12T02:37:46.757Z,11.97
2019-03-12T02:40:16.198Z,11.85
2019-03-12T02:42:45.494Z,11.85
2019-03-12T02:45:17.206Z,11.57
2019-03-12T02:47:46.394Z,11.18
2019-03-12T02:50:16.232Z,11.85
2019-03-12T02:52:45.380Z,10.88
2019-03-12T02:55:15.850Z,11.00
2019-03-12T02:57:44.997Z,11.12
2019-03-12T03:00:22.484Z,10.32
2019-03-12T03:02:51.726Z,10.43
2019-03-12T03:05:20.942Z,11.03
2019-03-12T03:07:54.203Z,10.08
2019-03-12T03:10:23.459Z,10.60
2019-03-12T03:12:52.715Z,9.93
2019-03-12T03:15:35.574Z,9.18
2019-03-12T03:18:04.820Z,9.68
2019-03-12T03:20:34.190Z,9.93
2019-03-12T03:23:03.371Z,9.00
2019-03-12T03:25:32.573Z,9.15
2019-03-12T03:28:01.878Z,8.83
2019-03-12T03:30:31.191Z,9.75
2019-03-12T03:33:00.495Z,9.53
2019-03-12T03:35:29.695Z,9.33
2019-03-12T03:37:58.878Z,7.83
2019-03-12T03:40:28.044Z,9.08
2019-03-12T03:42:57.262Z,8.78
2019-03-12T03:45:26.662Z,9.53
2019-03-12T03:47:55.943Z,9.23
2019-03-12T03:50:25.178Z,8.90
2019-03-12T03:52:54.418Z,8.90
2019-03-12T03:55:23.760Z,8.78
2019-03-12T03:57:52.959Z,8.88
2019-03-12T04:00:23.395Z,9.43
2019-03-12T04:02:52.794Z,8.88
2019-03-12T04:05:22.060Z,9.98
2019-03-12T04:07:51.567Z,9.60
2019-03-12T04:10:20.870Z,9.60
2019-03-12T04:12:50.213Z,9.10
2019-03-12T04:15:19.879Z,9.23
2019-03-12T04:17:49.127Z,10.32
2019-03-12T04:20:18.872Z,9.78
2019-03-12T04:22:49.362Z,9.35
2019-03-12T04:25:18.756Z,9.80
2019-03-12T04:27:48.156Z,9.90
2019-03-12T04:30:18.501Z,9.98
2019-03-12T04:32:47.886Z,9.55
2019-03-12T04:35:23.459Z,10.38
2019-03-12T04:37:52.781Z,9.83
2019-03-12T04:40:22.031Z,9.33
2019-03-12T04:42:51.567Z,10.30
2019-03-12T04:45:20.990Z,10.28
2019-03-12T04:47:50.310Z,10.72
2019-03-12T04:50:19.730Z,10.08
2019-03-12T04:52:49.116Z,9.70
2019-03-12T04:55:18.513Z,9.93
2019-03-12T04:57:47.759Z,9.90
2019-03-12T05:00:20.627Z,10.25
2019-03-12T05:02:49.860Z,9.45
2019-03-12T05:05:19.183Z,9.18
2019-03-12T05:07:48.553Z,9.13
2019-03-12T05:10:17.911Z,8.55
2019-03-12T05:12:47.232Z,9.28
2019-03-12T05:15:20.491Z,8.63
2019-03-12T05:17:49.804Z,8.68
2019-03-12T05:20:19.058Z,9.50
2019-03-12T05:22:48.265Z,8.85
2019-03-12T05:25:17.629Z,9.03
2019-03-12T05:27:46.881Z,9.08
2019-03-12T05:30:19.608Z,8.85
2019-03-12T05:32:48.851Z,9.05
2019-03-12T05:35:18.311Z,9.23
2019-03-12T05:37:47.631Z,8.85
2019-03-12T05:40:16.956Z,9.43
2019-03-12T05:42:46.325Z,9.53
2019-03-12T05:45:19.928Z,9.58
2019-03-12T05:47:49.231Z,9.43
2019-03-12T05:50:21.783Z,8.20
2019-03-12T05:52:51.154Z,8.90
2019-03-12T05:55:20.447Z,8.80
2019-03-12T05:57:49.746Z,7.78
2019-03-12T06:00:21.586Z,8.63
2019-03-12T06:02:50.929Z,8.90
2019-03-12T06:05:20.371Z,8.95
2019-03-12T06:07:50.218Z,9.15
2019-03-12T06:10:19.414Z,9.88
2019-03-12T06:12:48.812Z,8.88
2019-03-12T06:15:18.332Z,10.88
2019-03-12T06:17:47.722Z,10.80
2019-03-12T06:20:17.623Z,10.20
2019-03-12T06:22:47.001Z,9.83
2019-03-12T06:25:16.246Z,10.20
2019-03-12T06:27:45.908Z,9.43
2019-03-12T06:30:46.107Z,9.93
2019-03-12T06:33:06.966Z,9.60
2019-03-12T06:35:37.802Z,10.03
2019-03-12T06:38:11.157Z,8.63
2019-03-12T06:40:50.986Z,8.75
2019-03-12T06:43:28.378Z,9.65
2019-03-12T06:46:11.032Z,8.65
2019-03-12T06:51:17.824Z,7.17
2019-03-12T06:54:03.868Z,9.38
2019-03-12T06:56:34.830Z,9.53
2019-03-12T06:59:18.153Z,9.25
2019-03-12T07:01:58.265Z,10.05
2019-03-12T07:04:47.744Z,11.75
2019-03-12T07:07:34.897Z,10.70
2019-03-12T07:10:07.881Z,8.73
2019-03-12T07:12:54.976Z,9.10
2019-03-12T07:15:25.907Z,12.47
2019-03-12T07:17:56.872Z,8.65
2019-03-12T07:20:44.012Z,8.33
2019-03-12T07:23:20.741Z,7.35
2019-03-12T07:26:10.128Z,8.23
2019-03-12T07:28:57.361Z,8.43
2019-03-12T07:31:28.455Z,8.28
2019-03-12T07:33:59.599Z,7.72
2019-03-12T07:36:46.835Z,7.72
2019-03-12T07:39:20.971Z,7.72
2019-03-12T07:42:07.962Z,6.90
2019-03-12T07:44:38.898Z,9.95
2019-03-12T07:47:35.358Z,6.33
2019-03-12T07:50:06.322Z,6.70
2019-03-12T07:52:37.147Z,11.48
2019-03-12T07:55:24.707Z,6.17
2019-03-12T07:57:55.673Z,6.00
2019-03-12T08:00:26.556Z,5.83
2019-03-12T08:02:57.502Z,5.80
2019-03-12T08:05:28.683Z,4.78
2019-03-12T08:08:02.709Z,4.10
2019-03-12T08:10:48.681Z,4.67
2019-03-12T08:13:35.943Z,4.10
2019-03-12T08:16:24.685Z,6.12
2019-03-12T08:18:58.741Z,3.15
2019-03-12T08:21:41.877Z,4.30
2019-03-12T08:24:25.248Z,3.47
2019-03-12T08:27:08.492Z,3.70
2019-03-12T08:29:48.040Z,3.50
2019-03-12T08:32:23.891Z,3.15
2019-03-12T08:34:54.720Z,3.80
2019-03-12T08:37:25.533Z,3.75
2019-03-12T08:40:05.254Z,6.22
2019-03-12T08:42:38.680Z,4.00
2019-03-12T08:45:26.051Z,3.42
2019-03-12T08:48:02.617Z,3.77
2019-03-12T08:50:36.176Z,2.90
2019-03-12T08:53:12.471Z,2.70
2019-03-12T08:55:43.463Z,3.33
2019-03-12T08:58:20.367Z,3.52
2019-03-12T09:00:53.957Z,3.65
2019-03-12T09:03:43.120Z,3.05
2019-03-12T09:06:16.628Z,3.20
2019-03-12T09:09:02.385Z,3.12
2019-03-12T09:11:49.777Z,2.62
2019-03-12T09:14:20.842Z,3.00
2019-03-12T09:16:57.416Z,3.05
2019-03-12T09:19:44.296Z,2.87
2019-03-12T09:22:17.968Z,3.12
2019-03-12T09:24:57.950Z,3.58
2019-03-12T09:27:43.819Z,3.72
2019-03-12T09:30:14.659Z,3.37
2019-03-12T09:32:45.752Z,3.42
2019-03-12T09:35:22.339Z,2.92
2019-03-12T09:38:08.433Z,2.75
2019-03-12T09:40:42.174Z,2.67
2019-03-12T09:43:18.846Z,4.03
2019-03-12T09:45:52.783Z,2.60
2019-03-12T09:48:23.686Z,2.67
2019-03-12T09:50:54.504Z,2.25
2019-03-12T09:53:28.462Z,2.12
2019-03-12T09:56:11.295Z,2.30
2019-03-12T09:58:42.294Z,2.45
2019-03-12T10:01:22.714Z,2.40
2019-03-12T10:04:02.550Z,2.55
2019-03-12T10:06:39.398Z,2.70
2019-03-12T10:09:29.374Z,2.92
2019-03-12T10:12:00.223Z,2.60
2019-03-12T10:14:31.269Z,2.40
2019-03-12T10:17:13.919Z,2.65
2019-03-12T10:54:22.842Z,2.20
2019-03-12T10:56:52.081Z,2.10
2019-03-12T10:59:21.326Z,2.40
2019-03-12T11:01:50.557Z,2.00
2019-03-12T11:04:19.731Z,2.08
2019-03-12T11:06:48.913Z,2.27
2019-03-12T11:09:18.184Z,2.67
2019-03-12T11:11:47.371Z,2.62
2019-03-12T11:14:16.654Z,2.40
2019-03-12T11:16:45.932Z,2.30
2019-03-12T11:19:15.272Z,2.08
2019-03-12T11:21:44.554Z,2.08
2019-03-12T11:24:13.808Z,2.27
2019-03-12T11:26:43.239Z,2.45
2019-03-12T11:29:12.491Z,2.17
2019-03-12T11:31:41.810Z,2.33
2019-03-12T11:34:11.036Z,2.20
2019-03-12T11:36:40.278Z,2.08
2019-03-12T11:39:09.514Z,2.30
2019-03-12T11:41:38.805Z,2.30
2019-03-12T11:44:08.093Z,2.37
2019-03-12T11:46:44.352Z,3.47
2019-03-12T11:49:08.260Z,2.27
2019-03-12T11:51:37.609Z,2.62
2019-03-12T11:54:06.854Z,2.60
2019-03-12T11:56:36.090Z,3.40
2019-03-12T11:59:05.391Z,3.05
2019-03-12T12:01:34.734Z,3.10
2019-03-12T12:04:03.977Z,2.95
2019-03-12T12:06:33.147Z,3.10
2019-03-12T12:09:02.427Z,2.90
2019-03-12T12:11:31.635Z,2.30
2019-03-12T12:14:00.812Z,2.40
2019-03-12T12:16:30.061Z,3.22
2019-03-12T12:18:59.325Z,3.00
2019-03-12T12:21:28.636Z,2.67
2019-03-12T12:23:58.014Z,3.17
2019-03-12T12:26:27.187Z,2.77
2019-03-12T12:28:56.351Z,2.12
2019-03-12T12:31:25.571Z,2.60
2019-03-12T12:33:54.824Z,2.20
2019-03-12T12:36:24.064Z,2.30
2019-03-12T12:38:53.679Z,2.40
2019-03-12T12:41:22.932Z,2.80
2019-03-12T12:43:52.114Z,2.90
2019-03-12T12:46:21.389Z,2.30
2019-03-12T12:48:53.188Z,2.45
2019-03-12T12:51:21.623Z,2.58
2019-03-12T12:53:50.855Z,2.67
2019-03-12T12:56:20.221Z,3.00
2019-03-12T12:58:49.537Z,3.02
2019-03-12T13:01:18.796Z,2.67
2019-03-12T13:03:48.066Z,2.90
2019-03-12T13:06:17.279Z,2.40
2019-03-12T13:08:46.523Z,2.50
2019-03-12T13:11:15.700Z,3.37
2019-03-12T13:13:45.028Z,3.02
2019-03-12T13:16:24.493Z,3.58
2019-03-12T13:18:45.259Z,2.05
2019-03-12T13:21:14.479Z,2.45
2019-03-12T13:23:43.714Z,2.67
2019-03-12T13:26:12.951Z,2.85
2019-03-12T13:28:44.884Z,3.65
2019-03-12T13:31:13.131Z,2.60
2019-03-12T13:33:42.478Z,2.27
2019-03-12T13:36:13.387Z,2.45
2019-03-12T13:38:46.705Z,2.60
2019-03-12T13:41:13.621Z,2.80
2019-03-12T13:43:42.961Z,2.45
2019-03-12T13:46:12.242Z,4.97
2019-03-12T13:48:41.449Z,3.12
2019-03-12T13:51:10.729Z,2.60
2019-03-12T13:53:39.993Z,7.35
2019-03-12T13:56:09.303Z,15.03
2019-03-12T13:58:38.684Z,3.25
2019-03-12T14:01:07.939Z,2.00
2019-03-12T14:03:37.110Z,2.67
2019-03-12T14:06:06.381Z,11.90
2019-03-12T14:08:35.633Z,2.00
2019-03-12T14:11:05.002Z,1.82
2019-03-12T14:13:34.240Z,1.70
2019-03-12T14:16:03.480Z,2.15
2019-03-12T14:18:32.754Z,1.95
2019-03-12T14:21:07.763Z,1.90
2019-03-12T14:23:39.865Z,1.70
2019-03-12T14:26:09.162Z,2.02
2019-03-12T14:28:38.503Z,2.47
2019-03-12T14:31:07.822Z,2.98
2019-03-12T14:33:37.088Z,3.20
2019-03-12T14:36:06.604Z,1.80
2019-03-12T14:38:35.848Z,2.45
2019-03-12T14:41:05.090Z,1.90
2019-03-12T14:43:34.382Z,2.37
2019-03-12T14:46:03.619Z,1.70
2019-03-12T14:48:40.343Z,2.30
2019-03-12T14:51:18.736Z,2.10
2019-03-12T14:53:54.070Z,1.62
2019-03-12T14:56:26.721Z,1.70
2019-03-12T14:58:55.994Z,1.52
2019-03-12T15:01:25.196Z,2.10
2019-03-12T15:03:54.574Z,2.15
2019-03-12T15:06:23.744Z,1.90
2019-03-12T15:08:52.917Z,2.08
2019-03-12T15:11:22.217Z,1.62
2019-03-12T15:13:51.406Z,1.85
2019-03-12T15:16:20.660Z,2.02
2019-03-12T15:18:51.994Z,1.90
2019-03-12T15:21:20.843Z,1.90
2019-03-12T15:23:50.090Z,1.82
2019-03-12T15:26:19.377Z,1.70
2019-03-12T15:28:48.628Z,1.67
2019-03-12T15:31:18.056Z,2.05
2019-03-12T15:33:47.261Z,2.08
2019-03-12T15:36:16.457Z,2.05
2019-03-12T15:38:45.876Z,2.20
2019-03-12T15:41:15.106Z,2.22
2019-03-12T15:43:44.281Z,2.42
2019-03-12T15:46:13.528Z,2.25
2019-03-12T15:48:42.865Z,2.35
2019-03-12T15:51:12.043Z,2.17
2019-03-12T15:53:41.242Z,1.90
2019-03-12T15:56:10.484Z,2.20
2019-03-12T15:58:39.759Z,2.42
2019-03-12T16:01:08.931Z,2.20
2019-03-12T16:03:38.292Z,2.10
2019-03-12T16:06:07.536Z,2.37
2019-03-12T16:08:36.779Z,2.15
2019-03-12T16:11:06.413Z,2.25
2019-03-12T16:13:35.633Z,2.40
2019-03-12T16:16:05.399Z,3.22
2019-03-12T16:18:34.648Z,2.10
2019-03-12T16:21:03.821Z,2.40
2019-03-12T16:23:33.053Z,2.65
2019-03-12T16:26:02.289Z,3.00
2019-03-12T16:28:31.460Z,10.35
2019-03-12T16:31:00.669Z,8.58
2019-03-12T16:33:29.919Z,8.85
2019-03-12T16:35:59.213Z,12.60
2019-03-12T16:38:28.383Z,11.75
2019-03-12T16:40:57.896Z,11.43
2019-03-12T16:43:27.434Z,9.90
2019-03-12T16:45:56.677Z,12.00
2019-03-12T16:48:26.005Z,11.05
2019-03-12T16:50:55.302Z,12.53
2019-03-12T16:53:24.551Z,11.43
2019-03-12T16:55:53.732Z,13.58
2019-03-12T16:58:23.643Z,14.87
2019-03-12T17:00:52.821Z,17.35
2019-03-12T17:03:22.070Z,13.20
2019-03-12T17:05:51.610Z,12.85
2019-03-12T17:08:20.870Z,21.68
2019-03-12T17:10:58.207Z,20.75
2019-03-12T17:13:21.214Z,15.35
2019-03-12T17:15:54.451Z,13.32
2019-03-12T17:18:21.341Z,13.65
2019-03-12T17:20:50.642Z,11.83
2019-03-12T17:23:19.853Z,11.50
2019-03-12T17:25:49.190Z,12.85
2019-03-12T17:28:18.429Z,13.45
2019-03-12T17:30:47.618Z,13.98
2019-03-12T17:33:16.808Z,13.18
2019-03-12T17:35:46.239Z,14.60
2019-03-12T17:38:15.485Z,14.13
2019-03-12T17:40:44.670Z,13.00
2019-03-12T17:43:14.042Z,12.82
2019-03-12T17:45:43.364Z,13.30
2019-03-12T17:48:12.617Z,13.03
2019-03-12T17:50:41.838Z,13.08
2019-03-12T17:53:11.028Z,13.95
2019-03-12T17:55:40.207Z,13.83
2019-03-12T17:58:09.575Z,13.15
2019-03-12T18:00:40.423Z,14.70
2019-03-12T18:03:09.668Z,15.58
2019-03-12T18:05:38.972Z,14.40
2019-03-12T18:08:08.260Z,13.40
2019-03-12T18:10:37.418Z,14.00
2019-03-12T18:13:06.694Z,13.80
2019-03-12T18:15:35.906Z,13.95
2019-03-12T18:18:05.256Z,14.38
2019-03-12T18:20:34.406Z,14.35
2019-03-12T18:23:03.662Z,15.60
2019-03-12T18:25:37.758Z,14.40
2019-03-12T18:28:09.257Z,16.48
2019-03-12T18:30:38.536Z,14.67
2019-03-12T18:33:07.900Z,14.05
2019-03-12T18:35:37.146Z,15.32
2019-03-12T18:38:06.473Z,14.25
2019-03-12T18:40:35.818Z,16.65
2019-03-12T18:43:05.121Z,16.17
2019-03-12T18:45:38.743Z,15.58
2019-03-12T18:48:07.975Z,17.30
2019-03-12T18:50:37.220Z,15.83
2019-03-12T18:53:06.524Z,16.70
2019-03-12T18:55:44.104Z,17.57
2019-03-12T18:58:13.355Z,15.60
2019-03-12T19:00:48.529Z,18.07
2019-03-12T19:03:16.915Z,18.23
2019-03-12T19:05:46.091Z,17.37
2019-03-12T19:08:15.372Z,15.72
2019-03-12T19:10:44.746Z,16.57
2019-03-12T19:13:13.987Z,16.10
2019-03-12T19:15:43.292Z,17.77
2019-03-12T19:18:12.566Z,21.40
2019-03-12T19:20:41.856Z,20.40
2019-03-12T19:23:11.092Z,21.80
2019-03-12T19:25:43.281Z,20.75
2019-03-12T19:28:12.569Z,18.57
2019-03-12T19:30:41.983Z,18.75
2019-03-12T19:33:12.815Z,18.35
2019-03-12T19:35:42.014Z,18.07
2019-03-12T19:38:11.328Z,18.07
2019-03-12T19:40:45.861Z,16.55
2019-03-12T19:43:15.183Z,17.52
2019-03-12T19:45:44.358Z,15.90
2019-03-12T19:48:13.634Z,16.30
2019-03-12T19:50:42.879Z,16.55
2019-03-12T19:53:12.145Z,16.48
2019-03-12T19:55:53.643Z,16.25
2019-03-12T19:58:22.970Z,16.60
2019-03-12T20:00:52.569Z,16.35
2019-03-12T20:03:21.812Z,16.77
2019-03-12T20:05:51.113Z,17.40
2019-03-12T20:08:20.315Z,16.95
2019-03-12T20:11:07.959Z,16.40
2019-03-12T20:14:07.707Z,17.67
2019-03-12T20:17:09.120Z,17.60
2019-03-12T20:19:57.316Z,16.52
2019-03-12T20:22:58.629Z,18.55
2019-03-12T20:26:04.470Z,18.05
2019-03-12T20:29:10.906Z,17.17
2019-03-12T20:32:01.582Z,18.27
2019-03-12T20:35:09.372Z,17.40
2019-03-12T20:38:02.674Z,16.05
2019-03-12T20:40:57.993Z,18.48
2019-03-12T20:43:55.905Z,18.98
2019-03-12T20:46:37.257Z,20.15
2019-03-12T20:49:26.810Z,21.02
2019-03-12T20:52:32.449Z,23.92
2019-03-12T20:55:20.161Z,21.80
2019-03-12T20:58:24.220Z,22.35
2019-03-12T21:01:21.772Z,24.23
2019-03-12T21:04:18.118Z,22.05
2019-03-12T21:07:23.776Z,22.55
2019-03-12T21:10:25.168Z,23.38
2019-03-12T21:13:32.354Z,21.20
2019-03-12T21:16:33.851Z,22.22
2019-03-12T21:19:39.619Z,21.25
2019-03-12T21:22:23.921Z,21.02
2019-03-12T21:24:56.356Z,21.70
2019-03-12T21:29:55.031Z,22.73
2019-03-12T21:32:24.201Z,21.10
2019-03-12T21:34:53.446Z,19.90
2019-03-12T21:37:22.717Z,21.23
2019-03-12T21:39:55.833Z,20.97
2019-03-12T21:42:25.281Z,20.30
2019-03-12T21:44:54.031Z,23.45
2019-03-12T21:47:23.375Z,25.37
2019-03-12T21:49:52.614Z,24.47
2019-03-12T21:52:21.890Z,24.15
2019-03-12T21:54:51.161Z,23.00
2019-03-12T21:57:20.346Z,22.80
2019-03-12T21:59:49.622Z,21.97
2019-03-12T22:02:18.871Z,23.65
2019-03-12T22:04:48.113Z,26.23
2019-03-12T22:07:17.362Z,25.85
2019-03-12T22:09:46.612Z,25.37
2019-03-12T22:12:15.852Z,25.23
2019-03-12T22:14:45.089Z,22.98
2019-03-12T22:17:14.343Z,20.45
2019-03-12T22:19:43.594Z,23.12
2019-03-12T22:22:26.306Z,21.45
2019-03-12T22:25:08.227Z,21.57
2019-03-12T22:27:37.400Z,22.25
2019-03-12T22:30:26.148Z,19.23
2019-03-12T22:32:55.324Z,19.90
2019-03-12T22:35:24.565Z,19.02
2019-03-12T22:37:53.804Z,20.57
2019-03-12T22:40:23.061Z,17.32
2019-03-12T22:42:52.245Z,18.57
2019-03-12T22:45:21.545Z,17.75
2019-03-12T22:47:50.732Z,17.98
2019-03-12T22:50:20.054Z,18.55
2019-03-12T22:52:49.337Z,18.48
2019-03-12T22:55:18.585Z,20.02
2019-03-12T22:57:47.835Z,20.27
2019-03-12T23:00:19.590Z,19.95
2019-03-12T23:02:48.890Z,18.48
2019-03-12T23:05:18.142Z,19.98
2019-03-12T23:07:47.464Z,18.55
2019-03-12T23:10:17.330Z,18.35
2019-03-12T23:12:46.670Z,18.40
2019-03-12T23:15:17.486Z,18.12
2019-03-12T23:17:46.714Z,18.82
2019-03-12T23:20:18.983Z,18.82
2019-03-12T23:22:48.241Z,19.12
2019-03-12T23:25:17.538Z,19.50
2019-03-12T23:27:46.799Z,18.25
2019-03-12T23:30:17.716Z,20.20
2019-03-12T23:32:47.042Z,19.25
2019-03-12T23:35:16.235Z,20.48
2019-03-12T23:37:45.492Z,19.87
2019-03-12T23:40:18.656Z,21.40
2019-03-12T23:42:47.850Z,19.00
2019-03-12T23:45:17.197Z,20.77
2019-03-12T23:47:46.516Z,20.12
2019-03-12T23:50:18.878Z,18.30
2019-03-12T23:55:18.398Z,17.77
2019-03-12T23:57:47.657Z,20.68
